sensor_id;sensor_type;location;lat;lon;timestamp;temperature;humidity
75022;SHT31;63583;49.976;20.182;2022-10-16T00:01:23;13.75;70.34
75022;SHT31;63583;49.976;20.182;2022-10-16T00:03:49;13.75;70.20
75022;SHT31;63583;49.976;20.182;2022-10-16T00:06:16;13.72;70.49
75022;SHT31;63583;49.976;20.182;2022-10-16T00:08:43;13.74;70.34
75022;SHT31;63583;49.976;20.182;2022-10-16T00:11:15;13.75;70.28
75022;SHT31;63583;49.976;20.182;2022-10-16T00:13:42;13.82;70.09
75022;SHT31;63583;49.976;20.182;2022-10-16T00:16:09;13.89;69.83
75022;SHT31;63583;49.976;20.182;2022-10-16T00:18:35;13.92;69.85
75022;SHT31;63583;49.976;20.182;2022-10-16T00:21:16;13.88;69.88
75022;SHT31;63583;49.976;20.182;2022-10-16T00:23:43;13.96;69.61
75022;SHT31;63583;49.976;20.182;2022-10-16T00:26:12;13.98;69.86
75022;SHT31;63583;49.976;20.182;2022-10-16T00:28:39;13.90;70.31
75022;SHT31;63583;49.976;20.182;2022-10-16T00:31:07;14.08;69.81
75022;SHT31;63583;49.976;20.182;2022-10-16T00:33:34;14.15;69.50
75022;SHT31;63583;49.976;20.182;2022-10-16T00:36:02;14.22;69.30
75022;SHT31;63583;49.976;20.182;2022-10-16T00:38:28;14.08;69.73
75022;SHT31;63583;49.976;20.182;2022-10-16T00:40:54;14.05;70.18
75022;SHT31;63583;49.976;20.182;2022-10-16T00:43:42;14.13;69.73
75022;SHT31;63583;49.976;20.182;2022-10-16T00:46:15;14.16;69.46
75022;SHT31;63583;49.976;20.182;2022-10-16T00:48:45;14.27;69.48
75022;SHT31;63583;49.976;20.182;2022-10-16T00:51:13;14.19;69.43
75022;SHT31;63583;49.976;20.182;2022-10-16T00:53:39;14.19;69.66
75022;SHT31;63583;49.976;20.182;2022-10-16T00:56:05;14.13;69.46
75022;SHT31;63583;49.976;20.182;2022-10-16T00:58:31;14.06;69.83
75022;SHT31;63583;49.976;20.182;2022-10-16T01:00:57;14.02;70.12
75022;SHT31;63583;49.976;20.182;2022-10-16T01:14:39;14.09;70.50
75022;SHT31;63583;49.976;20.182;2022-10-16T01:17:19;14.06;70.52
75022;SHT31;63583;49.976;20.182;2022-10-16T01:20:10;14.15;70.59
75022;SHT31;63583;49.976;20.182;2022-10-16T01:28:11;14.09;70.98
75022;SHT31;63583;49.976;20.182;2022-10-16T01:30:40;14.16;70.53
75022;SHT31;63583;49.976;20.182;2022-10-16T01:33:18;14.13;70.62
75022;SHT31;63583;49.976;20.182;2022-10-16T01:35:53;14.29;70.27
75022;SHT31;63583;49.976;20.182;2022-10-16T01:38:29;14.32;69.90
75022;SHT31;63583;49.976;20.182;2022-10-16T01:41:00;14.20;70.62
75022;SHT31;63583;49.976;20.182;2022-10-16T01:43:30;14.24;70.38
75022;SHT31;63583;49.976;20.182;2022-10-16T01:45:57;14.22;71.02
75022;SHT31;63583;49.976;20.182;2022-10-16T01:48:24;14.36;70.28
75022;SHT31;63583;49.976;20.182;2022-10-16T01:51:06;14.37;70.36
75022;SHT31;63583;49.976;20.182;2022-10-16T01:53:33;14.27;70.83
75022;SHT31;63583;49.976;20.182;2022-10-16T01:56:00;14.24;71.06
75022;SHT31;63583;49.976;20.182;2022-10-16T01:58:28;14.24;70.94
75022;SHT31;63583;49.976;20.182;2022-10-16T02:00:56;14.19;70.95
75022;SHT31;63583;49.976;20.182;2022-10-16T02:03:22;14.20;71.04
75022;SHT31;63583;49.976;20.182;2022-10-16T02:08:14;14.22;71.31
75022;SHT31;63583;49.976;20.182;2022-10-16T02:10:39;14.29;71.05
75022;SHT31;63583;49.976;20.182;2022-10-16T02:13:17;14.27;71.03
75022;SHT31;63583;49.976;20.182;2022-10-16T02:15:42;14.27;71.04
75022;SHT31;63583;49.976;20.182;2022-10-16T02:18:09;14.24;70.99
75022;SHT31;63583;49.976;20.182;2022-10-16T02:20:51;14.34;70.84
75022;SHT31;63583;49.976;20.182;2022-10-16T02:23:27;14.44;70.53
75022;SHT31;63583;49.976;20.182;2022-10-16T02:25:56;14.47;70.51
75022;SHT31;63583;49.976;20.182;2022-10-16T02:28:28;14.54;70.18
75022;SHT31;63583;49.976;20.182;2022-10-16T02:31:00;14.56;70.03
75022;SHT31;63583;49.976;20.182;2022-10-16T02:33:27;14.81;69.04
75022;SHT31;63583;49.976;20.182;2022-10-16T02:35:55;14.63;70.04
75022;SHT31;63583;49.976;20.182;2022-10-16T02:38:22;14.57;69.97
75022;SHT31;63583;49.976;20.182;2022-10-16T02:40:49;14.59;70.00
75022;SHT31;63583;49.976;20.182;2022-10-16T02:43:15;14.56;70.14
75022;SHT31;63583;49.976;20.182;2022-10-16T02:45:41;14.51;70.41
75022;SHT31;63583;49.976;20.182;2022-10-16T02:48:07;14.47;70.59
75022;SHT31;63583;49.976;20.182;2022-10-16T02:50:32;14.43;70.76
75022;SHT31;63583;49.976;20.182;2022-10-16T02:52:58;14.40;71.06
75022;SHT31;63583;49.976;20.182;2022-10-16T02:55:24;14.44;70.62
75022;SHT31;63583;49.976;20.182;2022-10-16T02:57:50;14.51;70.67
75022;SHT31;63583;49.976;20.182;2022-10-16T03:00:17;14.56;70.46
75022;SHT31;63583;49.976;20.182;2022-10-16T03:02:43;14.51;70.35
75022;SHT31;63583;49.976;20.182;2022-10-16T03:05:09;14.40;70.73
75022;SHT31;63583;49.976;20.182;2022-10-16T03:07:36;14.37;71.02
75022;SHT31;63583;49.976;20.182;2022-10-16T03:10:02;14.34;71.27
75022;SHT31;63583;49.976;20.182;2022-10-16T03:12:28;14.33;71.66
75022;SHT31;63583;49.976;20.182;2022-10-16T03:14:55;14.29;71.83
75022;SHT31;63583;49.976;20.182;2022-10-16T03:17:23;14.32;71.73
75022;SHT31;63583;49.976;20.182;2022-10-16T03:19:48;14.26;71.80
75022;SHT31;63583;49.976;20.182;2022-10-16T03:22:15;14.32;71.68
75022;SHT31;63583;49.976;20.182;2022-10-16T03:24:41;14.36;71.46
75022;SHT31;63583;49.976;20.182;2022-10-16T03:27:07;14.32;71.32
75022;SHT31;63583;49.976;20.182;2022-10-16T03:29:33;14.37;71.34
75022;SHT31;63583;49.976;20.182;2022-10-16T03:31:59;14.34;71.52
75022;SHT31;63583;49.976;20.182;2022-10-16T03:34:25;14.27;71.49
75022;SHT31;63583;49.976;20.182;2022-10-16T03:36:52;14.30;71.31
75022;SHT31;63583;49.976;20.182;2022-10-16T03:39:19;14.27;71.41
75022;SHT31;63583;49.976;20.182;2022-10-16T03:41:45;14.24;71.51
75022;SHT31;63583;49.976;20.182;2022-10-16T03:44:12;14.36;70.88
75022;SHT31;63583;49.976;20.182;2022-10-16T03:46:38;14.47;70.60
75022;SHT31;63583;49.976;20.182;2022-10-16T03:49:04;14.47;70.67
75022;SHT31;63583;49.976;20.182;2022-10-16T03:51:30;14.47;70.75
75022;SHT31;63583;49.976;20.182;2022-10-16T03:53:56;14.57;70.14
75022;SHT31;63583;49.976;20.182;2022-10-16T03:56:22;14.51;70.65
75022;SHT31;63583;49.976;20.182;2022-10-16T03:58:47;14.54;70.41
75022;SHT31;63583;49.976;20.182;2022-10-16T04:01:13;14.63;70.19
75022;SHT31;63583;49.976;20.182;2022-10-16T04:03:39;14.57;70.78
75022;SHT31;63583;49.976;20.182;2022-10-16T04:06:05;14.63;70.45
75022;SHT31;63583;49.976;20.182;2022-10-16T04:08:30;14.75;69.61
75022;SHT31;63583;49.976;20.182;2022-10-16T04:10:59;14.77;69.97
75022;SHT31;63583;49.976;20.182;2022-10-16T04:13:25;14.67;70.26
75022;SHT31;63583;49.976;20.182;2022-10-16T04:15:51;14.60;70.58
75022;SHT31;63583;49.976;20.182;2022-10-16T04:18:16;14.64;70.15
75022;SHT31;63583;49.976;20.182;2022-10-16T04:20:42;14.59;70.41
75022;SHT31;63583;49.976;20.182;2022-10-16T04:23:08;14.47;70.98
75022;SHT31;63583;49.976;20.182;2022-10-16T04:25:34;14.45;71.29
75022;SHT31;63583;49.976;20.182;2022-10-16T04:27:59;14.34;71.87
75022;SHT31;63583;49.976;20.182;2022-10-16T04:30:25;14.20;72.52
75022;SHT31;63583;49.976;20.182;2022-10-16T04:32:52;14.19;72.41
75022;SHT31;63583;49.976;20.182;2022-10-16T04:35:20;14.04;72.95
75022;SHT31;63583;49.976;20.182;2022-10-16T04:37:46;13.95;73.22
75022;SHT31;63583;49.976;20.182;2022-10-16T04:40:12;13.94;73.64
75022;SHT31;63583;49.976;20.182;2022-10-16T04:42:37;14.13;72.99
75022;SHT31;63583;49.976;20.182;2022-10-16T04:45:05;14.08;72.70
75022;SHT31;63583;49.976;20.182;2022-10-16T04:47:31;13.98;72.96
75022;SHT31;63583;49.976;20.182;2022-10-16T04:49:56;13.95;73.01
75022;SHT31;63583;49.976;20.182;2022-10-16T04:52:22;14.13;72.01
75022;SHT31;63583;49.976;20.182;2022-10-16T04:54:50;14.13;72.00
75022;SHT31;63583;49.976;20.182;2022-10-16T04:57:17;14.13;72.07
75022;SHT31;63583;49.976;20.182;2022-10-16T04:59:42;14.12;72.27
75022;SHT31;63583;49.976;20.182;2022-10-16T05:02:08;14.09;72.36
75022;SHT31;63583;49.976;20.182;2022-10-16T05:04:34;14.10;72.28
75022;SHT31;63583;49.976;20.182;2022-10-16T05:07:00;14.17;72.00
75022;SHT31;63583;49.976;20.182;2022-10-16T05:09:25;14.08;72.29
75022;SHT31;63583;49.976;20.182;2022-10-16T05:11:51;13.96;72.68
75022;SHT31;63583;49.976;20.182;2022-10-16T05:14:17;14.06;72.56
75022;SHT31;63583;49.976;20.182;2022-10-16T05:16:43;14.08;72.43
75022;SHT31;63583;49.976;20.182;2022-10-16T05:19:09;14.04;72.55
75022;SHT31;63583;49.976;20.182;2022-10-16T05:21:34;14.08;72.20
75022;SHT31;63583;49.976;20.182;2022-10-16T05:24:00;14.08;72.18
75022;SHT31;63583;49.976;20.182;2022-10-16T05:26:26;14.13;72.15
75022;SHT31;63583;49.976;20.182;2022-10-16T05:28:51;14.23;71.84
75022;SHT31;63583;49.976;20.182;2022-10-16T05:31:17;14.29;71.92
75022;SHT31;63583;49.976;20.182;2022-10-16T05:33:43;14.27;72.13
75022;SHT31;63583;49.976;20.182;2022-10-16T05:36:09;14.24;72.30
75022;SHT31;63583;49.976;20.182;2022-10-16T05:38:36;14.24;72.38
75022;SHT31;63583;49.976;20.182;2022-10-16T05:41:03;14.27;72.46
75022;SHT31;63583;49.976;20.182;2022-10-16T05:43:30;14.27;72.32
75022;SHT31;63583;49.976;20.182;2022-10-16T05:45:57;14.37;72.08
75022;SHT31;63583;49.976;20.182;2022-10-16T05:48:25;14.64;71.17
75022;SHT31;63583;49.976;20.182;2022-10-16T05:51:05;14.63;71.31
75022;SHT31;63583;49.976;20.182;2022-10-16T05:53:35;14.74;70.99
75022;SHT31;63583;49.976;20.182;2022-10-16T05:56:22;14.67;71.82
75022;SHT31;63583;49.976;20.182;2022-10-16T05:59:41;14.67;72.10
75022;SHT31;63583;49.976;20.182;2022-10-16T06:02:42;14.59;72.05
75022;SHT31;63583;49.976;20.182;2022-10-16T06:05:54;14.64;71.99
75022;SHT31;63583;49.976;20.182;2022-10-16T06:08:55;14.68;71.71
75022;SHT31;63583;49.976;20.182;2022-10-16T06:11:35;14.72;71.70
75022;SHT31;63583;49.976;20.182;2022-10-16T06:14:12;14.84;71.30
75022;SHT31;63583;49.976;20.182;2022-10-16T06:16:42;14.81;71.49
75022;SHT31;63583;49.976;20.182;2022-10-16T06:21:52;14.84;71.79
75022;SHT31;63583;49.976;20.182;2022-10-16T06:24:18;14.85;72.16
75022;SHT31;63583;49.976;20.182;2022-10-16T06:26:44;14.78;72.28
75022;SHT31;63583;49.976;20.182;2022-10-16T06:29:09;14.85;72.12
75022;SHT31;63583;49.976;20.182;2022-10-16T06:31:35;14.91;72.33
75022;SHT31;63583;49.976;20.182;2022-10-16T06:34:01;14.78;73.07
75022;SHT31;63583;49.976;20.182;2022-10-16T06:36:27;14.78;72.80
75022;SHT31;63583;49.976;20.182;2022-10-16T06:38:53;14.80;72.69
75022;SHT31;63583;49.976;20.182;2022-10-16T06:41:20;14.92;72.36
75022;SHT31;63583;49.976;20.182;2022-10-16T06:43:47;15.06;71.74
75022;SHT31;63583;49.976;20.182;2022-10-16T06:46:16;15.18;71.32
75022;SHT31;63583;49.976;20.182;2022-10-16T06:48:42;15.35;70.33
75022;SHT31;63583;49.976;20.182;2022-10-16T06:51:10;15.60;69.34
75022;SHT31;63583;49.976;20.182;2022-10-16T06:53:37;15.76;69.45
75022;SHT31;63583;49.976;20.182;2022-10-16T06:56:36;15.91;68.46
75022;SHT31;63583;49.976;20.182;2022-10-16T06:58:56;16.18;67.42
75022;SHT31;63583;49.976;20.182;2022-10-16T07:01:23;16.28;67.41
75022;SHT31;63583;49.976;20.182;2022-10-16T07:03:50;16.64;65.65
75022;SHT31;63583;49.976;20.182;2022-10-16T07:06:17;16.83;66.00
75022;SHT31;63583;49.976;20.182;2022-10-16T07:08:45;17.10;65.63
75022;SHT31;63583;49.976;20.182;2022-10-16T07:11:16;17.35;64.57
75022;SHT31;63583;49.976;20.182;2022-10-16T07:13:44;17.39;64.75
75022;SHT31;63583;49.976;20.182;2022-10-16T07:16:17;17.36;65.01
75022;SHT31;63583;49.976;20.182;2022-10-16T07:18:44;17.32;65.09
75022;SHT31;63583;49.976;20.182;2022-10-16T07:21:13;17.18;65.33
75022;SHT31;63583;49.976;20.182;2022-10-16T07:23:40;17.15;65.43
75022;SHT31;63583;49.976;20.182;2022-10-16T07:26:08;17.21;65.24
75022;SHT31;63583;49.976;20.182;2022-10-16T07:28:35;17.36;65.77
75022;SHT31;63583;49.976;20.182;2022-10-16T07:31:20;17.25;65.92
75022;SHT31;63583;49.976;20.182;2022-10-16T07:33:47;17.28;64.84
75022;SHT31;63583;49.976;20.182;2022-10-16T07:36:15;17.22;66.33
75022;SHT31;63583;49.976;20.182;2022-10-16T07:38:41;17.25;64.98
75022;SHT31;63583;49.976;20.182;2022-10-16T07:41:10;17.27;65.13
75022;SHT31;63583;49.976;20.182;2022-10-16T07:43:36;17.24;65.70
75022;SHT31;63583;49.976;20.182;2022-10-16T07:46:02;17.46;64.90
75022;SHT31;63583;49.976;20.182;2022-10-16T07:48:31;17.63;64.28
75022;SHT31;63583;49.976;20.182;2022-10-16T07:51:07;17.59;64.11
75022;SHT31;63583;49.976;20.182;2022-10-16T07:53:33;17.59;64.67
75022;SHT31;63583;49.976;20.182;2022-10-16T07:56:04;17.70;64.33
75022;SHT31;63583;49.976;20.182;2022-10-16T07:58:31;17.69;64.90
75022;SHT31;63583;49.976;20.182;2022-10-16T08:00:58;17.80;64.50
75022;SHT31;63583;49.976;20.182;2022-10-16T08:03:25;17.91;63.98
75022;SHT31;63583;49.976;20.182;2022-10-16T08:05:51;17.91;64.38
75022;SHT31;63583;49.976;20.182;2022-10-16T08:08:18;17.85;65.21
75022;SHT31;63583;49.976;20.182;2022-10-16T08:10:44;18.04;64.57
75022;SHT31;63583;49.976;20.182;2022-10-16T08:13:10;18.14;63.06
75022;SHT31;63583;49.976;20.182;2022-10-16T08:15:36;18.30;62.84
75022;SHT31;63583;49.976;20.182;2022-10-16T08:18:04;18.30;62.61
75022;SHT31;63583;49.976;20.182;2022-10-16T08:20:31;18.35;61.96
75022;SHT31;63583;49.976;20.182;2022-10-16T08:22:59;18.42;61.97
75022;SHT31;63583;49.976;20.182;2022-10-16T08:25:25;18.45;61.19
75022;SHT31;63583;49.976;20.182;2022-10-16T08:27:51;18.42;61.94
75022;SHT31;63583;49.976;20.182;2022-10-16T08:30:19;18.34;62.90
75022;SHT31;63583;49.976;20.182;2022-10-16T08:32:45;18.49;62.43
75022;SHT31;63583;49.976;20.182;2022-10-16T08:35:12;18.49;62.56
75022;SHT31;63583;49.976;20.182;2022-10-16T08:37:38;18.41;63.03
75022;SHT31;63583;49.976;20.182;2022-10-16T08:40:05;18.59;61.65
75022;SHT31;63583;49.976;20.182;2022-10-16T08:42:58;18.58;62.48
75022;SHT31;63583;49.976;20.182;2022-10-16T08:48:21;18.69;61.82
75022;SHT31;63583;49.976;20.182;2022-10-16T08:50:52;18.76;60.90
75022;SHT31;63583;49.976;20.182;2022-10-16T08:53:24;18.86;60.90
75022;SHT31;63583;49.976;20.182;2022-10-16T08:55:52;18.95;61.57
75022;SHT31;63583;49.976;20.182;2022-10-16T08:58:20;18.99;60.63
75022;SHT31;63583;49.976;20.182;2022-10-16T09:00:49;19.19;59.20
75022;SHT31;63583;49.976;20.182;2022-10-16T09:11:30;19.47;59.39
75022;SHT31;63583;49.976;20.182;2022-10-16T09:14:11;19.54;57.35
75022;SHT31;63583;49.976;20.182;2022-10-16T09:16:46;19.58;57.74
75022;SHT31;63583;49.976;20.182;2022-10-16T09:22:04;19.79;57.16
75022;SHT31;63583;49.976;20.182;2022-10-16T09:24:34;19.96;55.88
75022;SHT31;63583;49.976;20.182;2022-10-16T09:27:00;20.10;55.57
75022;SHT31;63583;49.976;20.182;2022-10-16T09:29:26;20.20;56.30
75022;SHT31;63583;49.976;20.182;2022-10-16T09:31:53;20.33;55.06
75022;SHT31;63583;49.976;20.182;2022-10-16T09:34:34;20.20;54.60
75022;SHT31;63583;49.976;20.182;2022-10-16T09:37:04;20.15;54.46
75022;SHT31;63583;49.976;20.182;2022-10-16T09:39:44;19.95;55.17
75022;SHT31;63583;49.976;20.182;2022-10-16T09:42:46;19.92;55.75
75022;SHT31;63583;49.976;20.182;2022-10-16T09:45:06;19.64;57.91
75022;SHT31;63583;49.976;20.182;2022-10-16T09:47:45;19.53;57.34
75022;SHT31;63583;49.976;20.182;2022-10-16T09:50:25;19.58;56.68
75022;SHT31;63583;49.976;20.182;2022-10-16T09:53:03;19.51;56.42
75022;SHT31;63583;49.976;20.182;2022-10-16T09:55:30;19.51;56.86
75022;SHT31;63583;49.976;20.182;2022-10-16T09:57:55;19.38;57.46
75022;SHT31;63583;49.976;20.182;2022-10-16T10:00:23;19.34;57.72
75022;SHT31;63583;49.976;20.182;2022-10-16T10:02:50;19.34;58.22
75022;SHT31;63583;49.976;20.182;2022-10-16T10:05:27;19.40;57.60
75022;SHT31;63583;49.976;20.182;2022-10-16T10:08:01;19.50;56.73
75022;SHT31;63583;49.976;20.182;2022-10-16T10:10:41;19.46;57.71
75022;SHT31;63583;49.976;20.182;2022-10-16T10:13:22;19.61;57.35
75022;SHT31;63583;49.976;20.182;2022-10-16T10:15:48;19.62;57.39
75022;SHT31;63583;49.976;20.182;2022-10-16T10:18:21;19.71;56.15
75022;SHT31;63583;49.976;20.182;2022-10-16T10:20:59;19.72;55.98
75022;SHT31;63583;49.976;20.182;2022-10-16T10:23:26;19.74;56.07
75022;SHT31;63583;49.976;20.182;2022-10-16T10:26:14;19.68;56.76
75022;SHT31;63583;49.976;20.182;2022-10-16T10:33:57;19.83;56.87
75022;SHT31;63583;49.976;20.182;2022-10-16T10:36:27;20.00;54.84
75022;SHT31;63583;49.976;20.182;2022-10-16T10:39:17;20.06;54.99
75022;SHT31;63583;49.976;20.182;2022-10-16T10:42:06;20.08;54.40
75022;SHT31;63583;49.976;20.182;2022-10-16T10:50:26;20.16;55.90
75022;SHT31;63583;49.976;20.182;2022-10-16T10:55:40;20.33;53.61
75022;SHT31;63583;49.976;20.182;2022-10-16T10:58:24;20.29;54.61
75022;SHT31;63583;49.976;20.182;2022-10-16T11:03:35;20.47;53.46
75022;SHT31;63583;49.976;20.182;2022-10-16T11:06:34;20.45;52.85
75022;SHT31;63583;49.976;20.182;2022-10-16T11:09:18;20.50;52.53
75022;SHT31;63583;49.976;20.182;2022-10-16T11:14:25;20.43;52.10
75022;SHT31;63583;49.976;20.182;2022-10-16T11:16:53;20.40;52.95
75022;SHT31;63583;49.976;20.182;2022-10-16T11:19:24;20.54;52.73
75022;SHT31;63583;49.976;20.182;2022-10-16T11:22:17;20.39;52.50
75022;SHT31;63583;49.976;20.182;2022-10-16T11:28:02;20.53;53.01
75022;SHT31;63583;49.976;20.182;2022-10-16T11:30:31;20.65;52.40
75022;SHT31;63583;49.976;20.182;2022-10-16T11:39:30;20.54;52.65
75022;SHT31;63583;49.976;20.182;2022-10-16T11:42:39;20.37;52.40
75022;SHT31;63583;49.976;20.182;2022-10-16T11:47:24;20.30;53.12
75022;SHT31;63583;49.976;20.182;2022-10-16T11:49:57;20.33;53.32
75022;SHT31;63583;49.976;20.182;2022-10-16T11:52:30;20.30;53.24
75022;SHT31;63583;49.976;20.182;2022-10-16T11:55:04;20.20;54.03
75022;SHT31;63583;49.976;20.182;2022-10-16T11:57:34;20.39;52.80
75022;SHT31;63583;49.976;20.182;2022-10-16T12:08:15;20.48;53.72
75022;SHT31;63583;49.976;20.182;2022-10-16T12:10:44;20.57;52.54
75022;SHT31;63583;49.976;20.182;2022-10-16T12:18:41;20.55;53.26
75022;SHT31;63583;49.976;20.182;2022-10-16T12:21:07;20.45;53.95
75022;SHT31;63583;49.976;20.182;2022-10-16T12:23:37;20.48;53.19
75022;SHT31;63583;49.976;20.182;2022-10-16T12:26:04;20.60;53.66
75022;SHT31;63583;49.976;20.182;2022-10-16T12:28:31;20.55;54.03
75022;SHT31;63583;49.976;20.182;2022-10-16T12:31:00;20.54;53.50
75022;SHT31;63583;49.976;20.182;2022-10-16T12:33:28;20.67;53.47
75022;SHT31;63583;49.976;20.182;2022-10-16T12:35:56;20.65;53.55
75022;SHT31;63583;49.976;20.182;2022-10-16T12:38:30;20.77;53.65
75022;SHT31;63583;49.976;20.182;2022-10-16T12:41:07;20.85;53.26
75022;SHT31;63583;49.976;20.182;2022-10-16T12:43:44;20.88;53.39
75022;SHT31;63583;49.976;20.182;2022-10-16T12:48:38;21.22;52.42
75022;SHT31;63583;49.976;20.182;2022-10-16T12:54:01;21.60;52.66
75022;SHT31;63583;49.976;20.182;2022-10-16T13:02:37;21.84;50.36
75022;SHT31;63583;49.976;20.182;2022-10-16T13:05:30;21.63;52.51
75022;SHT31;63583;49.976;20.182;2022-10-16T13:13:38;21.61;51.49
75022;SHT31;63583;49.976;20.182;2022-10-16T13:19:28;21.71;51.62
75022;SHT31;63583;49.976;20.182;2022-10-16T13:22:06;21.74;49.49
75022;SHT31;63583;49.976;20.182;2022-10-16T13:29:32;21.63;50.31
75022;SHT31;63583;49.976;20.182;2022-10-16T13:32:00;21.64;50.48
75022;SHT31;63583;49.976;20.182;2022-10-16T13:34:32;21.63;50.18
75022;SHT31;63583;49.976;20.182;2022-10-16T13:36:58;21.68;49.64
75022;SHT31;63583;49.976;20.182;2022-10-16T13:39:29;21.61;50.30
75022;SHT31;63583;49.976;20.182;2022-10-16T13:42:23;21.35;50.50
75022;SHT31;63583;49.976;20.182;2022-10-16T13:44:52;21.26;50.99
75022;SHT31;63583;49.976;20.182;2022-10-16T13:47:19;21.13;52.08
75022;SHT31;63583;49.976;20.182;2022-10-16T13:49:46;21.11;51.84
75022;SHT31;63583;49.976;20.182;2022-10-16T13:52:19;21.05;52.77
75022;SHT31;63583;49.976;20.182;2022-10-16T13:54:45;20.96;52.93
75022;SHT31;63583;49.976;20.182;2022-10-16T13:57:15;20.84;53.53
75022;SHT31;63583;49.976;20.182;2022-10-16T13:59:42;20.90;53.05
75022;SHT31;63583;49.976;20.182;2022-10-16T14:04:48;20.60;55.02
75022;SHT31;63583;49.976;20.182;2022-10-16T14:07:20;20.43;55.66
75022;SHT31;63583;49.976;20.182;2022-10-16T14:09:50;20.32;56.28
75022;SHT31;63583;49.976;20.182;2022-10-16T14:12:18;20.19;56.14
75022;SHT31;63583;49.976;20.182;2022-10-16T14:14:46;20.32;55.29
75022;SHT31;63583;49.976;20.182;2022-10-16T14:17:21;20.19;55.12
75022;SHT31;63583;49.976;20.182;2022-10-16T14:19:49;20.06;55.34
75022;SHT31;63583;49.976;20.182;2022-10-16T14:22:37;20.02;55.81
75022;SHT31;63583;49.976;20.182;2022-10-16T14:28:22;19.85;57.43
75022;SHT31;63583;49.976;20.182;2022-10-16T14:30:51;19.74;57.56
75022;SHT31;63583;49.976;20.182;2022-10-16T14:33:31;19.68;57.59
75022;SHT31;63583;49.976;20.182;2022-10-16T14:36:21;19.64;58.26
75022;SHT31;63583;49.976;20.182;2022-10-16T14:39:06;19.55;58.43
75022;SHT31;63583;49.976;20.182;2022-10-16T14:41:45;19.44;58.52
75022;SHT31;63583;49.976;20.182;2022-10-16T14:44:12;19.34;59.34
75022;SHT31;63583;49.976;20.182;2022-10-16T14:46:41;19.26;59.41
75022;SHT31;63583;49.976;20.182;2022-10-16T14:51:37;19.11;59.82
75022;SHT31;63583;49.976;20.182;2022-10-16T14:54:03;19.06;59.92
75022;SHT31;63583;49.976;20.182;2022-10-16T14:56:53;19.02;60.60
75022;SHT31;63583;49.976;20.182;2022-10-16T14:59:32;18.85;60.96
75022;SHT31;63583;49.976;20.182;2022-10-16T15:01:59;18.90;61.40
75022;SHT31;63583;49.976;20.182;2022-10-16T15:04:26;18.76;62.62
75022;SHT31;63583;49.976;20.182;2022-10-16T15:06:51;18.63;63.04
75022;SHT31;63583;49.976;20.182;2022-10-16T15:09:17;18.40;63.65
75022;SHT31;63583;49.976;20.182;2022-10-16T15:11:43;18.30;64.01
75022;SHT31;63583;49.976;20.182;2022-10-16T15:14:12;18.17;64.54
75022;SHT31;63583;49.976;20.182;2022-10-16T15:16:40;18.06;64.91
75022;SHT31;63583;49.976;20.182;2022-10-16T15:19:06;18.00;65.05
75022;SHT31;63583;49.976;20.182;2022-10-16T15:21:32;17.89;65.37
75022;SHT31;63583;49.976;20.182;2022-10-16T15:23:59;17.76;65.46
75022;SHT31;63583;49.976;20.182;2022-10-16T15:26:28;17.76;65.32
75022;SHT31;63583;49.976;20.182;2022-10-16T15:28:54;17.68;64.83
75022;SHT31;63583;49.976;20.182;2022-10-16T15:31:20;17.72;64.43
75022;SHT31;63583;49.976;20.182;2022-10-16T15:33:52;17.68;64.53
75022;SHT31;63583;49.976;20.182;2022-10-16T15:36:28;17.70;64.31
75022;SHT31;63583;49.976;20.182;2022-10-16T15:38:56;17.76;64.16
75022;SHT31;63583;49.976;20.182;2022-10-16T15:41:22;17.63;64.49
75022;SHT31;63583;49.976;20.182;2022-10-16T15:43:49;17.50;65.00
75022;SHT31;63583;49.976;20.182;2022-10-16T15:46:18;17.39;65.18
75022;SHT31;63583;49.976;20.182;2022-10-16T15:48:45;17.35;65.34
75022;SHT31;63583;49.976;20.182;2022-10-16T15:51:11;17.24;66.21
75022;SHT31;63583;49.976;20.182;2022-10-16T15:53:36;17.17;65.96
75022;SHT31;63583;49.976;20.182;2022-10-16T15:56:03;17.00;66.34
75022;SHT31;63583;49.976;20.182;2022-10-16T15:58:30;16.93;66.67
75022;SHT31;63583;49.976;20.182;2022-10-16T16:00:57;16.93;66.53
75022;SHT31;63583;49.976;20.182;2022-10-16T16:03:23;16.97;66.42
75022;SHT31;63583;49.976;20.182;2022-10-16T16:05:49;16.90;66.46
75022;SHT31;63583;49.976;20.182;2022-10-16T16:08:15;16.80;66.77
75022;SHT31;63583;49.976;20.182;2022-10-16T16:10:42;16.64;66.95
75022;SHT31;63583;49.976;20.182;2022-10-16T16:13:07;16.67;67.04
75022;SHT31;63583;49.976;20.182;2022-10-16T16:15:33;16.67;66.93
75022;SHT31;63583;49.976;20.182;2022-10-16T16:17:59;16.79;66.36
75022;SHT31;63583;49.976;20.182;2022-10-16T16:20:27;16.67;66.68
75022;SHT31;63583;49.976;20.182;2022-10-16T16:22:53;16.64;66.59
75022;SHT31;63583;49.976;20.182;2022-10-16T16:25:19;16.72;66.40
75022;SHT31;63583;49.976;20.182;2022-10-16T16:27:45;16.76;66.59
75022;SHT31;63583;49.976;20.182;2022-10-16T16:30:11;16.77;66.85
75022;SHT31;63583;49.976;20.182;2022-10-16T16:32:37;16.88;66.84
75022;SHT31;63583;49.976;20.182;2022-10-16T16:35:03;16.83;66.88
75022;SHT31;63583;49.976;20.182;2022-10-16T16:37:30;16.55;67.56
75022;SHT31;63583;49.976;20.182;2022-10-16T16:39:56;16.56;67.76
75022;SHT31;63583;49.976;20.182;2022-10-16T16:42:25;16.38;68.12
75022;SHT31;63583;49.976;20.182;2022-10-16T16:44:51;16.25;68.40
75022;SHT31;63583;49.976;20.182;2022-10-16T16:47:17;16.26;68.29
75022;SHT31;63583;49.976;20.182;2022-10-16T16:49:42;16.30;68.05
75022;SHT31;63583;49.976;20.182;2022-10-16T16:52:08;16.36;67.88
75022;SHT31;63583;49.976;20.182;2022-10-16T16:54:34;16.28;68.00
75022;SHT31;63583;49.976;20.182;2022-10-16T16:57:00;16.22;68.29
75022;SHT31;63583;49.976;20.182;2022-10-16T16:59:26;16.15;68.53
75022;SHT31;63583;49.976;20.182;2022-10-16T17:01:52;16.08;68.70
75022;SHT31;63583;49.976;20.182;2022-10-16T17:04:17;16.08;68.81
75022;SHT31;63583;49.976;20.182;2022-10-16T17:06:45;16.08;68.82
75022;SHT31;63583;49.976;20.182;2022-10-16T17:09:11;16.01;69.13
75022;SHT31;63583;49.976;20.182;2022-10-16T17:11:41;16.11;68.96
75022;SHT31;63583;49.976;20.182;2022-10-16T17:14:08;16.09;68.92
75022;SHT31;63583;49.976;20.182;2022-10-16T17:16:37;16.08;68.89
75022;SHT31;63583;49.976;20.182;2022-10-16T17:19:06;16.04;68.90
75022;SHT31;63583;49.976;20.182;2022-10-16T17:21:33;16.04;69.05
75022;SHT31;63583;49.976;20.182;2022-10-16T17:23:59;16.00;69.09
75022;SHT31;63583;49.976;20.182;2022-10-16T17:26:26;15.91;69.56